createdAt,value
2022-08-04T00:01:40.383Z,49.94
2022-08-04T00:04:20.466Z,49.75
2022-08-04T00:07:03.013Z,49.40
2022-08-04T00:09:40.588Z,49.20
2022-08-04T00:12:12.347Z,49.43
2022-08-04T00:14:49.360Z,49.33
2022-08-04T00:17:22.746Z,49.38
2022-08-04T00:19:57.329Z,49.73
2022-08-04T00:22:30.592Z,49.15
2022-08-04T00:25:02.517Z,49.29
2022-08-04T00:27:31.226Z,48.74
2022-08-04T00:30:00.197Z,49.02
2022-08-04T00:32:34.646Z,48.85
2022-08-04T00:35:03.935Z,48.85
2022-08-04T00:37:34.849Z,48.48
2022-08-04T00:40:10.400Z,48.19
2022-08-04T00:42:58.403Z,48.48
2022-08-04T00:46:16.118Z,48.16
2022-08-04T00:49:16.680Z,48.75
2022-08-04T00:52:31.987Z,49.02
2022-08-04T00:54:57.602Z,48.94
2022-08-04T00:57:37.675Z,48.62
2022-08-04T01:00:10.891Z,48.97
2022-08-04T01:02:52.618Z,48.62
2022-08-04T01:05:37.640Z,48.58
2022-08-04T01:08:27.712Z,48.67
2022-08-04T01:11:12.731Z,48.98
2022-08-04T01:14:09.969Z,48.59
2022-08-04T01:16:51.022Z,48.37
2022-08-04T01:19:49.885Z,48.72
2022-08-04T01:23:00.532Z,48.99
2022-08-04T01:26:00.125Z,48.83
2022-08-04T01:28:42.437Z,49.04
2022-08-04T01:31:22.787Z,48.78
2022-08-04T01:33:58.468Z,48.73
2022-08-04T01:36:35.913Z,48.37
2022-08-04T01:39:25.751Z,49.32
2022-08-04T01:41:57.693Z,48.86
2022-08-04T01:44:29.595Z,49.37
2022-08-04T01:47:01.376Z,50.05
2022-08-04T01:49:40.583Z,49.69
2022-08-04T01:52:12.036Z,49.98
2022-08-04T01:54:43.275Z,50.22
2022-08-04T01:57:45.967Z,50.60
2022-08-04T02:00:02.081Z,50.63
2022-08-04T02:02:34.327Z,50.72
2022-08-04T02:05:02.761Z,50.65
2022-08-04T02:07:51.301Z,51.00
2022-08-04T02:10:29.226Z,50.55
2022-08-04T02:13:12.425Z,50.83
2022-08-04T02:15:54.451Z,51.03
2022-08-04T02:18:31.622Z,51.31
2022-08-04T02:21:02.018Z,51.38
2022-08-04T02:23:38.811Z,51.25
2022-08-04T02:26:19.304Z,51.20
2022-08-04T02:29:01.966Z,50.84
2022-08-04T02:31:34.400Z,51.06
2022-08-04T02:34:13.741Z,51.25
2022-08-04T02:36:43.898Z,50.86
2022-08-04T02:39:13.783Z,51.20
2022-08-04T02:41:42.349Z,51.74
2022-08-04T02:44:11.447Z,51.65
2022-08-04T02:46:42.322Z,51.62
2022-08-04T02:49:12.424Z,51.58
2022-08-04T02:51:43.645Z,51.49
2022-08-04T02:54:12.165Z,51.67
2022-08-04T02:56:41.789Z,51.41
2022-08-04T02:59:12.743Z,51.83
2022-08-04T03:01:57.600Z,51.63
2022-08-04T03:04:46.119Z,51.63
2022-08-04T03:07:46.632Z,51.92
2022-08-04T03:10:58.058Z,51.86
2022-08-04T03:13:59.087Z,51.43
2022-08-04T03:16:52.893Z,51.10
2022-08-04T03:20:11.655Z,51.37
2022-08-04T03:23:14.268Z,51.65
2022-08-04T03:26:24.215Z,51.10
2022-08-04T03:29:47.152Z,51.64
2022-08-04T03:33:37.035Z,51.88
2022-08-04T03:37:18.804Z,52.17
2022-08-04T03:40:36.528Z,52.22
2022-08-04T03:43:57.889Z,52.36
2022-08-04T03:47:06.797Z,52.61
2022-08-04T03:50:23.831Z,52.54
2022-08-04T03:53:34.480Z,52.56
2022-08-04T03:56:50.165Z,53.22
2022-08-04T03:59:49.136Z,52.91
2022-08-04T04:02:59.083Z,52.92
2022-08-04T04:06:15.104Z,53.01
2022-08-04T04:09:03.688Z,53.63
2022-08-04T04:12:04.360Z,53.52
2022-08-04T04:14:54.700Z,53.51
2022-08-04T04:17:52.065Z,54.04
2022-08-04T04:21:00.003Z,53.72
2022-08-04T04:24:13.831Z,54.10
2022-08-04T04:26:59.989Z,53.91
2022-08-04T04:29:59.451Z,54.14
2022-08-04T04:32:53.969Z,54.41
2022-08-04T04:35:38.526Z,54.49
2022-08-04T04:38:31.765Z,54.10
2022-08-04T04:41:32.435Z,54.00
2022-08-04T04:44:42.787Z,53.39
2022-08-04T04:47:16.997Z,53.48
2022-08-04T04:50:14.438Z,53.61
2022-08-04T04:52:48.757Z,53.41
2022-08-04T04:55:23.579Z,52.91
2022-08-04T04:57:57.667Z,53.48
2022-08-04T05:00:43.248Z,53.33
2022-08-04T05:03:50.998Z,52.78
2022-08-04T05:06:54.239Z,53.41
2022-08-04T05:09:44.193Z,53.01
2022-08-04T05:14:31.420Z,53.21
2022-08-04T05:15:46.443Z,53.05
2022-08-04T05:18:23.254Z,53.17
2022-08-04T05:20:59.415Z,52.66
2022-08-04T05:23:31.715Z,52.72
2022-08-04T05:26:06.068Z,52.56
2022-08-04T05:28:40.344Z,52.22
2022-08-04T05:31:16.901Z,52.28
2022-08-04T05:33:49.961Z,52.70
2022-08-04T05:36:40.156Z,52.85
2022-08-04T05:39:14.121Z,52.55
2022-08-04T05:41:45.555Z,52.29
2022-08-04T05:44:17.854Z,53.02
2022-08-04T05:46:53.679Z,52.94
2022-08-04T05:49:24.477Z,52.50
2022-08-04T05:51:55.655Z,52.29
2022-08-04T05:54:25.545Z,52.16
2022-08-04T05:56:55.279Z,51.33
2022-08-04T05:59:25.609Z,51.02
2022-08-04T06:01:58.803Z,50.41
2022-08-04T06:04:36.372Z,50.36
2022-08-04T06:07:04.902Z,50.34
2022-08-04T06:09:33.515Z,50.31
2022-08-04T06:12:05.005Z,49.86
2022-08-04T06:14:44.581Z,49.60
2022-08-04T06:19:56.326Z,50.21
2022-08-04T06:20:19.037Z,49.59
2022-08-04T06:22:55.097Z,49.20
2022-08-04T06:25:30.625Z,49.43
2022-08-04T06:28:00.694Z,49.64
2022-08-04T06:30:32.396Z,48.85
2022-08-04T06:33:13.392Z,49.18
2022-08-04T06:35:42.637Z,48.83
2022-08-04T06:38:12.311Z,48.47
2022-08-04T06:40:40.875Z,48.55
2022-08-04T06:43:09.255Z,48.13
2022-08-04T06:45:41.243Z,47.84
2022-08-04T06:48:16.871Z,47.96
2022-08-04T06:51:25.045Z,48.37
2022-08-04T06:53:37.113Z,46.88
2022-08-04T06:56:06.107Z,46.97
2022-08-04T06:58:35.071Z,46.85
2022-08-04T07:01:05.216Z,46.18
2022-08-04T07:03:35.913Z,45.46
2022-08-04T07:06:14.058Z,45.28
2022-08-04T07:08:43.927Z,45.02
2022-08-04T07:11:13.351Z,45.10
2022-08-04T07:13:45.201Z,44.80
2022-08-04T07:16:16.480Z,44.46
2022-08-04T07:18:46.032Z,43.54
2022-08-04T07:21:23.728Z,44.07
2022-08-04T07:23:52.241Z,43.20
2022-08-04T07:26:20.400Z,43.08
2022-08-04T07:28:48.541Z,42.80
2022-08-04T07:31:33.128Z,41.56
2022-08-04T07:34:11.572Z,42.12
2022-08-04T07:36:53.120Z,41.73
2022-08-04T07:39:28.537Z,41.27
2022-08-04T07:42:03.921Z,40.89
2022-08-04T07:44:33.032Z,41.97
2022-08-04T07:47:02.454Z,41.53
2022-08-04T07:49:56.301Z,40.69
2022-08-04T07:52:21.715Z,40.57
2022-08-04T07:54:51.437Z,39.96
2022-08-04T07:57:41.796Z,38.63
2022-08-04T08:00:10.991Z,39.57
2022-08-04T08:02:42.797Z,38.99
2022-08-04T08:05:16.750Z,38.20
2022-08-04T08:07:50.432Z,38.59
2022-08-04T08:10:24.072Z,39.72
2022-08-04T08:12:52.824Z,39.08
2022-08-04T08:15:21.961Z,38.56
2022-08-04T08:17:58.640Z,38.15
2022-08-04T08:20:31.891Z,38.14
2022-08-04T08:23:01.795Z,37.00
2022-08-04T08:25:32.209Z,37.73
2022-08-04T08:28:00.862Z,37.24
2022-08-04T08:30:31.471Z,37.18
2022-08-04T08:33:05.573Z,37.12
2022-08-04T08:35:54.817Z,36.39
2022-08-04T08:38:39.798Z,35.58
2022-08-04T08:42:05.793Z,36.44
2022-08-04T08:45:17.948Z,36.25
2022-08-04T08:48:28.585Z,35.45
2022-08-04T08:51:38.729Z,35.20
2022-08-04T08:54:40.100Z,33.96
2022-08-04T08:57:34.883Z,35.57
2022-08-04T09:00:18.871Z,35.02
2022-08-04T09:03:28.074Z,34.62
2022-08-04T09:06:29.072Z,34.14
2022-08-04T09:09:14.903Z,35.34
2022-08-04T09:11:50.940Z,34.04
2022-08-04T09:14:25.778Z,33.21
2022-08-04T09:17:02.684Z,32.67
2022-08-04T09:19:40.524Z,32.06
2022-08-04T09:22:21.485Z,31.13
2022-08-04T09:24:58.695Z,30.84
2022-08-04T09:27:36.480Z,32.20
2022-08-04T09:30:06.972Z,30.93
2022-08-04T09:32:53.057Z,30.69
2022-08-04T09:35:34.314Z,31.20
2022-08-04T09:38:17.369Z,30.29
2022-08-04T09:40:57.088Z,30.75
2022-08-04T09:43:59.012Z,30.64
2022-08-04T09:46:41.578Z,31.88
2022-08-04T09:49:18.818Z,31.74
2022-08-04T09:52:08.570Z,31.34
2022-08-04T09:54:52.658Z,30.68
2022-08-04T09:57:40.091Z,31.99
2022-08-04T10:00:16.508Z,29.82
2022-08-04T10:02:51.821Z,29.86
2022-08-04T10:05:26.186Z,29.98
2022-08-04T10:08:17.253Z,29.76
2022-08-04T10:11:00.881Z,29.81
2022-08-04T10:13:48.709Z,30.06
2022-08-04T10:16:38.773Z,27.66
2022-08-04T10:19:25.507Z,29.34
2022-08-04T10:22:29.826Z,28.65
2022-08-04T10:25:44.452Z,28.54
2022-08-04T10:28:10.128Z,28.87
2022-08-04T10:30:44.170Z,28.48
2022-08-04T10:33:24.088Z,28.03
2022-08-04T10:36:01.131Z,28.71
2022-08-04T10:38:40.639Z,27.51
2022-08-04T10:41:17.931Z,26.98
2022-08-04T10:43:57.593Z,28.92
2022-08-04T10:46:32.129Z,28.60
2022-08-04T10:49:05.316Z,28.04
2022-08-04T10:51:57.263Z,27.89
2022-08-04T10:54:35.039Z,27.96
2022-08-04T10:57:12.109Z,27.49
2022-08-04T10:59:52.354Z,27.64
2022-08-04T11:02:44.193Z,26.96
2022-08-04T11:05:30.109Z,26.79
2022-08-04T11:08:07.682Z,27.96
2022-08-04T11:10:46.448Z,28.60
2022-08-04T11:13:29.409Z,28.53
2022-08-04T11:16:06.139Z,27.45
2022-08-04T11:18:54.618Z,28.62
2022-08-04T11:21:33.172Z,27.89
2022-08-04T11:24:07.767Z,28.97
2022-08-04T11:26:46.839Z,28.54
2022-08-04T11:29:26.595Z,28.84
2022-08-04T11:32:03.138Z,27.80
2022-08-04T11:34:35.204Z,28.16
2022-08-04T11:37:14.035Z,29.00
2022-08-04T11:39:49.909Z,27.92
2022-08-04T11:42:24.461Z,29.01
2022-08-04T11:45:00.660Z,29.34
2022-08-04T11:47:33.963Z,29.02
2022-08-04T11:50:09.658Z,28.24
2022-08-04T11:52:43.495Z,28.24
2022-08-04T11:55:16.383Z,28.20
2022-08-04T11:57:45.462Z,28.25
2022-08-04T12:00:23.308Z,28.22
2022-08-04T12:03:13.481Z,28.71
2022-08-04T12:05:52.499Z,27.48
2022-08-04T12:08:37.323Z,28.31
2022-08-04T12:11:22.561Z,27.10
2022-08-04T12:14:05.350Z,27.31
2022-08-04T12:16:43.367Z,27.03
2022-08-04T12:19:22.569Z,27.25
2022-08-04T12:21:59.952Z,27.30
2022-08-04T12:24:35.316Z,28.09
2022-08-04T12:27:18.170Z,28.28
2022-08-04T12:30:54.167Z,27.83
2022-08-04T12:32:48.379Z,28.31
2022-08-04T12:35:30.816Z,27.82
2022-08-04T12:38:05.948Z,27.07
2022-08-04T12:40:41.694Z,27.23
2022-08-04T12:43:16.002Z,26.90
2022-08-04T12:45:48.549Z,26.98
2022-08-04T12:48:21.370Z,27.98
2022-08-04T12:50:54.778Z,27.11
2022-08-04T12:53:31.832Z,27.91
2022-08-04T12:56:02.626Z,27.66
2022-08-04T12:58:41.826Z,27.34
2022-08-04T13:02:08.470Z,26.70
2022-08-04T13:04:12.960Z,27.04
2022-08-04T13:06:44.423Z,27.66
2022-08-04T13:09:20.119Z,27.43
2022-08-04T13:11:54.987Z,28.09
2022-08-04T13:14:27.628Z,28.87
2022-08-04T13:17:00.070Z,27.24
2022-08-04T13:19:29.609Z,27.19
2022-08-04T13:22:02.868Z,26.41
2022-08-04T13:24:56.241Z,26.28
2022-08-04T13:27:24.362Z,27.02
2022-08-04T13:29:59.932Z,25.92
2022-08-04T13:32:34.827Z,27.21
2022-08-04T13:35:05.784Z,28.25
2022-08-04T13:37:39.105Z,27.78
2022-08-04T13:40:12.878Z,28.14
2022-08-04T13:42:47.462Z,27.55
2022-08-04T13:45:19.809Z,26.93
2022-08-04T13:47:51.593Z,28.41
2022-08-04T13:50:26.188Z,28.79
2022-08-04T13:52:57.831Z,29.22
2022-08-04T13:55:30.190Z,28.65
2022-08-04T13:58:05.138Z,29.35
2022-08-04T14:00:46.390Z,28.77
2022-08-04T14:03:26.068Z,28.14
2022-08-04T14:06:17.987Z,28.14
2022-08-04T14:08:54.779Z,28.55
2022-08-04T14:12:09.022Z,28.62
2022-08-04T14:14:24.472Z,27.94
2022-08-04T14:17:02.281Z,27.73
2022-08-04T14:19:49.007Z,28.20
2022-08-04T14:22:34.665Z,28.06
2022-08-04T14:25:15.800Z,27.37
2022-08-04T14:27:48.500Z,27.48
2022-08-04T14:30:26.590Z,27.44
2022-08-04T14:34:01.141Z,28.48
2022-08-04T14:35:59.462Z,29.72
2022-08-04T14:38:46.585Z,27.84
2022-08-04T14:41:18.979Z,29.32
2022-08-04T14:43:50.156Z,28.96
2022-08-04T14:46:19.065Z,28.85
2022-08-04T14:49:10.433Z,28.63
2022-08-04T14:51:42.173Z,29.05
2022-08-04T14:54:17.690Z,27.73
2022-08-04T14:56:57.858Z,27.89
2022-08-04T14:59:27.238Z,28.04
2022-08-04T15:02:00.148Z,28.25
2022-08-04T15:04:31.215Z,28.30
2022-08-04T15:07:00.430Z,28.71
2022-08-04T15:09:29.630Z,28.65
2022-08-04T15:11:59.165Z,28.03
2022-08-04T15:14:36.753Z,27.46
2022-08-04T15:17:27.162Z,27.81
2022-08-04T15:19:57.524Z,29.43
2022-08-04T15:22:25.651Z,29.36
2022-08-04T15:24:55.488Z,28.97
2022-08-04T15:27:29.818Z,29.05
2022-08-04T15:30:02.990Z,28.52
2022-08-04T15:32:33.226Z,28.42
2022-08-04T15:35:10.533Z,29.12
2022-08-04T15:37:53.331Z,29.29
2022-08-04T15:40:33.519Z,30.06
2022-08-04T15:43:22.636Z,30.31
2022-08-04T15:46:34.923Z,29.07
2022-08-04T15:48:41.296Z,29.22
2022-08-04T15:51:15.209Z,29.48
2022-08-04T15:54:30.753Z,28.63
2022-08-04T15:57:02.719Z,28.91
2022-08-04T16:00:11.283Z,29.14
2022-08-04T16:02:44.205Z,29.30
2022-08-04T16:05:45.559Z,29.74
2022-08-04T16:08:18.039Z,29.06
2022-08-04T16:10:50.704Z,29.33
2022-08-04T16:13:22.278Z,29.44
2022-08-04T16:15:54.549Z,28.04
2022-08-04T16:18:43.535Z,28.01
2022-08-04T16:21:24.730Z,27.83
2022-08-04T16:24:22.130Z,28.04
2022-08-04T16:26:56.866Z,28.43
2022-08-04T16:29:35.050Z,28.16
2022-08-04T16:32:22.903Z,27.52
2022-08-04T16:34:59.590Z,28.46
2022-08-04T16:37:37.590Z,28.15
2022-08-04T16:40:36.978Z,28.08
2022-08-04T16:43:09.683Z,28.00
2022-08-04T16:45:46.887Z,28.33
2022-08-04T16:48:17.672Z,28.22
2022-08-04T16:51:07.365Z,28.92
2022-08-04T16:53:53.316Z,29.36
2022-08-04T16:56:32.963Z,28.95
2022-08-04T16:59:09.019Z,29.02
2022-08-04T17:01:37.803Z,29.34
2022-08-04T17:04:07.767Z,28.84
2022-08-04T17:06:39.343Z,28.99
2022-08-04T17:09:13.593Z,28.91
2022-08-04T17:11:42.655Z,29.15
2022-08-04T17:14:11.035Z,29.28
2022-08-04T17:16:41.753Z,29.32
2022-08-04T17:19:24.140Z,29.84
2022-08-04T17:22:04.423Z,29.52
2022-08-04T17:24:34.981Z,30.71
2022-08-04T17:27:04.430Z,30.38
2022-08-04T17:29:51.697Z,29.73
2022-08-04T17:32:23.113Z,30.07
2022-08-04T17:34:57.187Z,30.28
2022-08-04T17:37:38.046Z,30.41
2022-08-04T17:40:13.989Z,30.67
2022-08-04T17:42:45.235Z,30.70
2022-08-04T17:48:24.602Z,30.50
2022-08-04T17:50:54.685Z,30.75
2022-08-04T17:54:02.907Z,31.24
2022-08-04T17:56:43.083Z,31.73
2022-08-04T17:59:56.931Z,31.90
2022-08-04T18:02:12.098Z,31.49
2022-08-04T18:05:07.163Z,31.60
2022-08-04T18:08:39.958Z,31.51
2022-08-04T18:10:51.755Z,32.19
2022-08-04T18:13:26.846Z,31.93
2022-08-04T18:16:04.616Z,32.43
2022-08-04T18:18:33.052Z,32.87
2022-08-04T18:21:03.415Z,32.63
2022-08-04T18:23:34.249Z,32.90
2022-08-04T18:26:11.601Z,32.80
2022-08-04T18:28:42.246Z,32.58
2022-08-04T18:31:10.276Z,32.39
2022-08-04T18:33:41.527Z,32.28
2022-08-04T18:36:34.877Z,32.40
2022-08-04T18:39:12.533Z,32.87
2022-08-04T18:42:00.783Z,33.43
2022-08-04T18:44:31.579Z,33.46
2022-08-04T18:52:36.720Z,33.39
2022-08-04T18:55:55.631Z,33.51
2022-08-04T18:58:07.197Z,33.68
2022-08-04T19:00:36.637Z,34.23
2022-08-04T19:03:05.452Z,33.98
2022-08-04T19:05:38.079Z,34.49
2022-08-04T19:08:33.345Z,33.93
2022-08-04T19:11:01.108Z,34.06
2022-08-04T19:16:40.670Z,34.49
2022-08-04T19:19:10.319Z,34.74
2022-08-04T19:21:59.617Z,35.98
2022-08-04T19:24:34.069Z,39.13
2022-08-04T19:27:08.285Z,39.02
2022-08-04T19:29:41.243Z,39.27
2022-08-04T19:32:14.577Z,39.06
2022-08-04T19:34:47.073Z,39.18
2022-08-04T19:37:57.435Z,39.82
2022-08-04T19:40:09.533Z,39.19
2022-08-04T19:42:40.270Z,39.57
2022-08-04T19:45:15.876Z,39.62
2022-08-04T19:48:21.577Z,40.60
2022-08-04T19:50:33.226Z,40.29
2022-08-04T19:53:01.528Z,41.15
2022-08-04T19:55:37.371Z,40.15
2022-08-04T19:58:09.524Z,40.22
2022-08-04T20:00:39.229Z,41.38
2022-08-04T20:03:11.711Z,40.17
2022-08-04T20:05:53.642Z,40.92
2022-08-04T20:08:28.339Z,41.25
2022-08-04T20:10:56.605Z,41.49
2022-08-04T20:13:37.279Z,40.83
2022-08-04T20:16:26.213Z,40.24
2022-08-04T20:19:00.845Z,40.82
2022-08-04T20:24:39.201Z,40.69
2022-08-04T20:27:11.600Z,42.02
2022-08-04T20:32:35.198Z,41.06
2022-08-04T20:35:03.881Z,41.02
2022-08-04T20:37:55.504Z,41.11
2022-08-04T20:40:20.152Z,41.77
2022-08-04T20:42:50.408Z,41.73
2022-08-04T20:45:22.781Z,42.44
2022-08-04T20:47:53.209Z,42.39
2022-08-04T20:50:29.646Z,42.66
2022-08-04T20:52:58.166Z,43.22
2022-08-04T20:55:29.527Z,43.02
2022-08-04T20:58:03.196Z,42.16
2022-08-04T21:00:33.612Z,42.97
2022-08-04T21:03:02.807Z,42.54
2022-08-04T21:05:31.501Z,43.11
2022-08-04T21:08:00.202Z,42.94
2022-08-04T21:10:30.402Z,42.18
2022-08-04T21:12:59.140Z,42.11
2022-08-04T21:15:57.832Z,42.38
2022-08-04T21:18:17.173Z,43.09
2022-08-04T21:20:48.245Z,42.90
2022-08-04T21:23:16.668Z,42.98
2022-08-04T21:25:45.589Z,43.49
2022-08-04T21:28:20.573Z,42.63
2022-08-04T21:30:52.408Z,43.46
2022-08-04T21:33:50.044Z,43.44
2022-08-04T21:36:14.893Z,44.05
2022-08-04T21:38:51.225Z,43.63
2022-08-04T21:41:24.771Z,44.17
2022-08-04T21:43:53.554Z,44.25
2022-08-04T21:46:22.304Z,44.16
2022-08-04T21:48:51.962Z,44.29
2022-08-04T21:51:57.066Z,44.03
2022-08-04T21:54:15.121Z,44.38
2022-08-04T21:56:51.570Z,44.10
2022-08-04T21:59:23.540Z,44.56
2022-08-04T22:02:00.993Z,44.73
2022-08-04T22:04:31.375Z,44.70
2022-08-04T22:07:03.038Z,44.68
2022-08-04T22:09:40.866Z,44.53
2022-08-04T22:12:11.968Z,44.27
2022-08-04T22:14:40.658Z,44.20
2022-08-04T22:17:13.712Z,44.48
2022-08-04T22:19:55.744Z,44.56
2022-08-04T22:22:29.100Z,44.96
2022-08-04T22:25:01.796Z,44.27
2022-08-04T22:27:55.125Z,44.48
2022-08-04T22:30:24.210Z,44.18
2022-08-04T22:32:57.339Z,43.96
2022-08-04T22:35:30.939Z,44.12
2022-08-04T22:38:25.338Z,44.75
2022-08-04T22:41:02.798Z,44.30
2022-08-04T22:43:34.408Z,44.67
2022-08-04T22:46:06.380Z,44.40
2022-08-04T22:48:36.906Z,44.22
2022-08-04T22:51:08.298Z,44.13
2022-08-04T22:53:37.230Z,44.85
2022-08-04T22:56:09.946Z,44.66
2022-08-04T22:58:45.311Z,44.66
2022-08-04T23:01:15.564Z,44.94
2022-08-04T23:03:55.041Z,44.64
2022-08-04T23:06:28.731Z,44.23
2022-08-04T23:08:57.455Z,44.70
2022-08-04T23:11:35.627Z,45.23
2022-08-04T23:14:06.055Z,44.28
2022-08-04T23:16:40.770Z,44.43
2022-08-04T23:19:15.162Z,43.95
2022-08-04T23:21:47.987Z,44.25
2022-08-04T23:24:30.268Z,44.88
2022-08-04T23:26:58.753Z,44.60
2022-08-04T23:29:27.402Z,44.43
2022-08-04T23:32:00.004Z,45.00
2022-08-04T23:34:29.446Z,44.65
2022-08-04T23:36:59.472Z,44.83
2022-08-04T23:40:03.899Z,44.64
2022-08-04T23:42:21.332Z,44.92
2022-08-04T23:44:50.290Z,44.99
2022-08-04T23:48:16.192Z,44.89
2022-08-04T23:50:09.766Z,45.23
2022-08-04T23:52:39.153Z,45.25
2022-08-04T23:55:18.888Z,45.42
2022-08-04T23:58:16.830Z,45.47
